createdAt,value
2019-01-29T00:01:55.692Z,1.00
2019-01-29T00:04:25.028Z,1.00
2019-01-29T00:06:54.279Z,1.00
2019-01-29T00:09:23.668Z,1.00
2019-01-29T00:11:53.138Z,1.00
2019-01-29T00:14:22.484Z,1.00
2019-01-29T00:16:51.773Z,1.00
2019-01-29T00:19:20.997Z,0.90
2019-01-29T00:21:50.252Z,0.90
2019-01-29T00:24:19.550Z,0.90
2019-01-29T00:26:49.112Z,0.90
2019-01-29T00:29:18.389Z,0.90
2019-01-29T00:31:47.742Z,0.90
2019-01-29T00:34:17.025Z,0.90
2019-01-29T00:36:46.412Z,0.90
2019-01-29T00:39:15.703Z,0.80
2019-01-29T00:41:46.267Z,0.80
2019-01-29T00:44:15.627Z,0.80
2019-01-29T00:46:44.970Z,0.80
2019-01-29T00:49:14.321Z,0.80
2019-01-29T00:51:43.601Z,0.80
2019-01-29T00:54:12.893Z,0.80
2019-01-29T00:56:42.234Z,0.70
2019-01-29T00:59:11.615Z,0.80
2019-01-29T01:01:41.167Z,0.70
2019-01-29T01:04:10.520Z,0.70
2019-01-29T01:06:39.885Z,0.70
2019-01-29T01:09:10.007Z,0.70
2019-01-29T01:11:39.345Z,0.70
2019-01-29T01:14:08.669Z,0.60
2019-01-29T01:16:37.960Z,0.60
2019-01-29T01:19:07.325Z,0.60
2019-01-29T01:21:36.651Z,0.60
2019-01-29T01:24:06.121Z,0.60
2019-01-29T01:26:35.373Z,0.60
2019-01-29T01:29:05.549Z,0.50
2019-01-29T01:31:34.825Z,0.50
2019-01-29T01:34:04.111Z,0.40
2019-01-29T01:36:33.458Z,0.40
2019-01-29T01:39:03.914Z,0.40
2019-01-29T01:41:33.219Z,0.30
2019-01-29T01:44:02.765Z,0.30
2019-01-29T01:46:32.055Z,0.30
2019-01-29T01:49:01.446Z,0.20
2019-01-29T01:51:30.798Z,0.20
2019-01-29T01:54:00.102Z,0.20
2019-01-29T01:56:29.497Z,0.10
2019-01-29T01:58:58.792Z,0.10
2019-01-29T02:01:28.222Z,0.10
2019-01-29T02:03:57.543Z,0.10
2019-01-29T02:06:26.797Z,0.10
2019-01-29T02:08:57.822Z,0.00
2019-01-29T02:11:27.255Z,0.00
2019-01-29T02:13:56.645Z,-0.10
2019-01-29T02:16:25.961Z,-0.10
2019-01-29T02:18:55.387Z,-0.10
2019-01-29T02:21:24.710Z,-0.10
2019-01-29T02:23:53.990Z,-0.10
2019-01-29T02:26:23.323Z,-0.10
2019-01-29T02:28:52.700Z,-0.10
2019-01-29T02:31:22.014Z,-0.10
2019-01-29T02:33:51.301Z,-0.20
2019-01-29T02:36:20.597Z,-0.10
2019-01-29T02:38:49.962Z,-0.20
2019-01-29T02:41:19.334Z,-0.10
2019-01-29T02:43:48.696Z,-0.20
2019-01-29T02:46:17.974Z,-0.20
2019-01-29T02:48:47.273Z,-0.20
2019-01-29T02:51:17.948Z,-0.20
2019-01-29T02:53:47.507Z,-0.20
2019-01-29T02:56:16.791Z,-0.20
2019-01-29T02:58:46.171Z,-0.20
2019-01-29T03:01:15.652Z,-0.30
2019-01-29T03:03:44.966Z,-0.20
2019-01-29T03:06:14.266Z,-0.30
2019-01-29T03:08:43.660Z,-0.30
2019-01-29T03:11:13.045Z,-0.30
2019-01-29T03:13:42.361Z,-0.30
2019-01-29T03:16:11.661Z,-0.40
2019-01-29T03:18:40.982Z,-0.40
2019-01-29T03:21:10.542Z,-0.40
2019-01-29T03:23:39.892Z,-0.40
2019-01-29T03:26:09.192Z,-0.40
2019-01-29T03:28:38.487Z,-0.40
2019-01-29T03:31:07.795Z,-0.30
2019-01-29T03:33:37.265Z,-0.30
2019-01-29T03:36:06.640Z,-0.30
2019-01-29T03:38:36.008Z,-0.30
2019-01-29T03:41:05.423Z,-0.20
2019-01-29T03:43:34.778Z,-0.20
2019-01-29T03:46:04.324Z,-0.10
2019-01-29T03:48:33.591Z,-0.10
2019-01-29T03:51:02.985Z,0.00
2019-01-29T03:53:37.909Z,0.10
2019-01-29T03:56:03.382Z,0.10
2019-01-29T03:58:32.649Z,0.10
2019-01-29T04:01:01.991Z,0.10
2019-01-29T04:03:31.298Z,0.10
2019-01-29T04:06:00.603Z,0.10
2019-01-29T04:08:29.950Z,0.20
2019-01-29T04:10:59.234Z,0.20
2019-01-29T04:13:28.569Z,0.30
2019-01-29T04:15:57.922Z,0.30
2019-01-29T04:18:27.263Z,0.30
2019-01-29T04:20:56.645Z,0.50
2019-01-29T04:23:25.976Z,0.50
2019-01-29T04:25:55.354Z,0.50
2019-01-29T04:28:24.789Z,0.50
2019-01-29T04:30:54.174Z,0.50
2019-01-29T04:33:23.509Z,0.50
2019-01-29T04:35:52.723Z,0.50
2019-01-29T04:38:22.133Z,0.50
2019-01-29T04:40:51.497Z,0.50
2019-01-29T04:43:20.846Z,0.50
2019-01-29T04:45:50.114Z,0.50
2019-01-29T04:48:19.450Z,0.40
2019-01-29T04:50:48.854Z,0.50
2019-01-29T04:53:18.282Z,0.50
2019-01-29T04:55:47.570Z,0.50
2019-01-29T04:58:16.887Z,0.60
2019-01-29T05:00:46.131Z,0.60
2019-01-29T05:03:15.479Z,0.70
2019-01-29T05:05:46.266Z,0.80
2019-01-29T05:08:15.509Z,0.80
2019-01-29T05:10:44.846Z,0.80
2019-01-29T05:13:14.226Z,0.90
2019-01-29T05:15:43.765Z,0.90
2019-01-29T05:18:13.110Z,0.90
2019-01-29T05:20:42.485Z,0.90
2019-01-29T05:23:11.859Z,1.00
2019-01-29T05:25:41.124Z,1.00
2019-01-29T05:28:10.587Z,1.00
2019-01-29T05:30:40.036Z,1.00
2019-01-29T05:33:09.245Z,1.00
2019-01-29T05:35:38.641Z,0.90
2019-01-29T05:38:07.871Z,0.90
2019-01-29T05:40:37.341Z,0.90
2019-01-29T05:43:06.640Z,0.90
2019-01-29T05:45:35.955Z,0.90
2019-01-29T05:48:05.457Z,0.90
2019-01-29T05:50:34.770Z,0.90
2019-01-29T05:53:04.181Z,0.90
2019-01-29T05:55:33.555Z,1.00
2019-01-29T05:58:02.853Z,1.00
2019-01-29T06:00:35.356Z,1.00
2019-01-29T06:03:04.753Z,1.00
2019-01-29T06:05:34.003Z,1.00
2019-01-29T06:08:05.163Z,1.10
2019-01-29T06:10:34.212Z,1.10
2019-01-29T06:13:03.620Z,1.10
2019-01-29T06:15:33.027Z,1.10
2019-01-29T06:18:02.411Z,1.10
2019-01-29T06:20:31.783Z,1.10
2019-01-29T06:23:01.102Z,1.10
2019-01-29T06:25:30.459Z,1.10
2019-01-29T06:27:59.850Z,1.20
2019-01-29T06:30:29.269Z,1.20
2019-01-29T06:32:58.590Z,1.20
2019-01-29T06:35:27.963Z,1.20
2019-01-29T06:37:57.245Z,1.10
2019-01-29T06:40:27.707Z,1.20
2019-01-29T06:42:57.042Z,1.30
2019-01-29T06:45:27.023Z,1.20
2019-01-29T06:47:56.464Z,1.20
2019-01-29T06:50:28.881Z,1.20
2019-01-29T06:52:58.205Z,1.20
2019-01-29T06:55:27.793Z,1.20
2019-01-29T06:57:57.281Z,1.20
2019-01-29T07:00:28.993Z,1.10
2019-01-29T07:02:59.821Z,1.10
2019-01-29T07:05:29.300Z,1.10
2019-01-29T07:07:58.823Z,1.20
2019-01-29T07:10:29.769Z,1.20
2019-01-29T07:12:59.061Z,1.10
2019-01-29T07:15:46.777Z,1.20
2019-01-29T07:18:34.004Z,1.20
2019-01-29T07:21:05.864Z,1.30
2019-01-29T07:23:35.214Z,1.30
2019-01-29T07:26:04.952Z,1.30
2019-01-29T07:28:34.220Z,1.30
2019-01-29T07:31:04.293Z,1.30
2019-01-29T07:33:33.807Z,1.30
2019-01-29T07:36:05.035Z,1.30
2019-01-29T07:38:34.506Z,1.30
2019-01-29T07:41:03.892Z,1.30
2019-01-29T07:43:33.265Z,1.30
2019-01-29T07:46:02.819Z,1.30
2019-01-29T07:48:32.165Z,1.30
2019-01-29T07:51:01.719Z,1.40
2019-01-29T07:53:31.153Z,1.40
2019-01-29T07:56:03.035Z,1.50
2019-01-29T07:58:32.361Z,1.70
2019-01-29T08:01:01.799Z,1.90
2019-01-29T08:03:31.199Z,1.90
2019-01-29T08:06:00.571Z,1.90
2019-01-29T08:08:29.853Z,1.90
2019-01-29T08:10:59.171Z,1.80
2019-01-29T08:13:28.498Z,1.70
2019-01-29T08:15:57.989Z,1.70
2019-01-29T08:18:27.296Z,1.60
2019-01-29T08:20:56.591Z,1.60
2019-01-29T08:23:25.889Z,1.60
2019-01-29T08:25:55.232Z,1.60
2019-01-29T08:28:24.545Z,1.60
2019-01-29T08:30:53.916Z,1.60
2019-01-29T08:33:23.292Z,1.70
2019-01-29T08:35:52.661Z,2.00
2019-01-29T08:38:21.994Z,2.10
2019-01-29T08:40:51.418Z,2.20
2019-01-29T08:43:20.631Z,2.10
2019-01-29T08:45:50.020Z,2.10
2019-01-29T08:48:19.365Z,2.00
2019-01-29T08:50:48.832Z,2.00
2019-01-29T08:53:18.173Z,2.00
2019-01-29T08:55:47.607Z,2.10
2019-01-29T08:58:17.044Z,2.10
2019-01-29T09:00:46.394Z,2.10
2019-01-29T09:03:16.214Z,2.20
2019-01-29T09:05:45.590Z,2.30
2019-01-29T09:08:14.942Z,2.50
2019-01-29T09:10:44.270Z,2.60
2019-01-29T09:13:13.569Z,2.60
2019-01-29T09:15:42.949Z,2.60
2019-01-29T09:18:12.313Z,2.60
2019-01-29T09:20:41.693Z,2.50
2019-01-29T09:23:11.093Z,2.50
2019-01-29T09:25:40.579Z,2.50
2019-01-29T09:28:09.965Z,2.50
2019-01-29T09:30:39.404Z,2.50
2019-01-29T09:33:08.918Z,2.60
2019-01-29T09:35:38.133Z,2.60
2019-01-29T09:38:07.475Z,2.70
2019-01-29T09:40:36.767Z,2.80
2019-01-29T09:43:06.089Z,2.80
2019-01-29T09:45:35.600Z,2.80
2019-01-29T09:48:05.230Z,2.80
2019-01-29T09:50:34.574Z,2.90
2019-01-29T09:53:03.909Z,3.00
2019-01-29T09:55:33.172Z,3.00
2019-01-29T09:58:02.457Z,3.10
2019-01-29T10:00:33.886Z,3.30
2019-01-29T10:03:03.145Z,3.30
2019-01-29T10:05:32.591Z,3.50
2019-01-29T10:08:01.861Z,3.60
2019-01-29T10:10:31.109Z,3.90
2019-01-29T10:13:00.697Z,4.40
2019-01-29T10:15:33.319Z,4.70
2019-01-29T10:18:02.729Z,4.70
2019-01-29T10:20:31.969Z,4.50
2019-01-29T10:23:01.878Z,4.20
2019-01-29T10:25:37.523Z,4.00
2019-01-29T10:28:02.459Z,3.80
2019-01-29T10:30:31.820Z,3.60
2019-01-29T10:33:01.161Z,3.40
2019-01-29T10:35:30.713Z,3.30
2019-01-29T10:37:59.999Z,3.20
2019-01-29T10:40:29.677Z,3.10
2019-01-29T10:42:59.070Z,3.10
2019-01-29T10:45:29.334Z,3.10
2019-01-29T10:47:58.971Z,3.00
2019-01-29T10:50:29.013Z,3.10
2019-01-29T10:52:59.148Z,3.20
2019-01-29T10:55:30.143Z,3.20
2019-01-29T10:57:59.549Z,3.20
2019-01-29T11:00:32.428Z,3.20
2019-01-29T11:03:02.213Z,3.20
2019-01-29T11:05:31.848Z,3.20
2019-01-29T11:08:01.370Z,3.20
2019-01-29T11:10:30.717Z,3.20
2019-01-29T11:13:00.102Z,3.20
2019-01-29T11:15:32.222Z,3.30
2019-01-29T11:18:01.754Z,3.30
2019-01-29T11:20:31.251Z,3.30
2019-01-29T11:23:00.663Z,3.30
2019-01-29T11:25:30.706Z,3.40
2019-01-29T11:28:00.478Z,3.50
2019-01-29T11:30:30.368Z,3.40
2019-01-29T11:32:59.754Z,3.40
2019-01-29T11:35:29.164Z,3.40
2019-01-29T11:37:58.473Z,3.40
2019-01-29T11:40:29.269Z,3.40
2019-01-29T11:42:58.677Z,3.30
2019-01-29T11:45:30.932Z,3.30
2019-01-29T11:48:00.390Z,3.40
2019-01-29T11:50:29.772Z,3.40
2019-01-29T11:52:59.170Z,3.30
2019-01-29T11:55:28.488Z,3.30
2019-01-29T11:57:57.931Z,3.20
2019-01-29T12:00:34.275Z,3.30
2019-01-29T12:03:03.776Z,3.30
2019-01-29T12:05:33.255Z,3.20
2019-01-29T12:08:02.541Z,3.30
2019-01-29T12:10:31.937Z,3.40
2019-01-29T12:13:02.566Z,3.40
2019-01-29T12:15:32.057Z,3.40
2019-01-29T12:18:01.416Z,3.40
2019-01-29T12:20:30.794Z,3.50
2019-01-29T12:23:00.099Z,3.40
2019-01-29T12:25:29.477Z,3.50
2019-01-29T12:27:58.834Z,3.50
2019-01-29T12:30:28.361Z,3.50
2019-01-29T12:32:58.259Z,3.50
2019-01-29T12:35:27.584Z,3.70
2019-01-29T12:37:56.962Z,3.80
2019-01-29T12:40:26.412Z,3.90
2019-01-29T12:42:55.673Z,3.90
2019-01-29T12:45:26.628Z,3.80
2019-01-29T12:47:56.293Z,4.00
2019-01-29T12:50:26.173Z,4.00
2019-01-29T12:53:13.376Z,3.90
2019-01-29T12:55:42.783Z,4.40
2019-01-29T12:58:12.052Z,4.70
2019-01-29T13:00:56.574Z,4.90
2019-01-29T13:03:25.939Z,4.70
2019-01-29T13:05:55.427Z,4.80
2019-01-29T13:08:25.051Z,5.10
2019-01-29T13:10:54.478Z,5.60
2019-01-29T13:13:24.930Z,5.70
2019-01-29T13:15:54.348Z,5.60
2019-01-29T13:18:23.789Z,5.50
2019-01-29T13:20:53.222Z,5.50
2019-01-29T13:23:22.522Z,5.50
2019-01-29T13:25:52.062Z,5.40
2019-01-29T13:28:21.561Z,5.10
2019-01-29T13:30:51.240Z,5.10
2019-01-29T13:33:20.617Z,4.90
2019-01-29T13:35:49.977Z,4.60
2019-01-29T13:38:19.369Z,4.70
2019-01-29T13:40:48.734Z,5.20
2019-01-29T13:43:18.163Z,5.40
2019-01-29T13:45:47.649Z,5.30
2019-01-29T13:48:18.507Z,5.10
2019-01-29T13:50:57.114Z,5.00
2019-01-29T13:53:26.443Z,4.90
2019-01-29T13:55:55.853Z,4.80
2019-01-29T13:58:25.249Z,4.80
2019-01-29T14:00:54.637Z,4.80
2019-01-29T14:03:25.121Z,4.90
2019-01-29T14:05:56.682Z,5.00
2019-01-29T14:08:26.068Z,5.20
2019-01-29T14:10:55.544Z,5.30
2019-01-29T14:13:25.087Z,5.30
2019-01-29T14:15:56.088Z,5.30
2019-01-29T14:18:27.602Z,5.20
2019-01-29T14:20:57.731Z,5.20
2019-01-29T14:23:27.030Z,5.30
2019-01-29T14:25:56.344Z,5.30
2019-01-29T14:28:25.694Z,5.30
2019-01-29T14:30:55.086Z,5.20
2019-01-29T14:33:25.462Z,5.20
2019-01-29T14:35:54.761Z,5.10
2019-01-29T14:39:06.097Z,4.90
2019-01-29T14:41:35.615Z,4.80
2019-01-29T14:44:11.015Z,4.70
2019-01-29T14:46:40.358Z,4.50
2019-01-29T14:49:09.621Z,4.40
2019-01-29T14:51:38.974Z,4.30
2019-01-29T14:54:08.570Z,4.10
2019-01-29T14:56:38.028Z,4.00
2019-01-29T14:59:07.380Z,4.00
2019-01-29T15:01:36.668Z,3.90
2019-01-29T15:04:05.948Z,3.80
2019-01-29T15:06:35.816Z,3.80
2019-01-29T15:09:09.581Z,3.80
2019-01-29T15:11:38.940Z,3.70
2019-01-29T15:14:08.476Z,3.60
2019-01-29T15:16:47.428Z,3.60
2019-01-29T15:19:19.373Z,3.60
2019-01-29T15:21:48.877Z,3.60
2019-01-29T15:24:18.223Z,3.60
2019-01-29T15:26:47.583Z,3.50
2019-01-29T15:29:17.060Z,3.50
2019-01-29T15:31:48.270Z,3.40
2019-01-29T15:34:17.707Z,3.40
2019-01-29T15:36:47.142Z,3.30
2019-01-29T15:39:16.531Z,3.30
2019-01-29T15:41:45.903Z,3.30
2019-01-29T15:44:15.287Z,3.40
2019-01-29T15:46:44.734Z,3.40
2019-01-29T15:49:14.034Z,3.40
2019-01-29T15:51:43.374Z,3.40
2019-01-29T15:54:12.725Z,3.40
2019-01-29T15:56:42.077Z,3.30
2019-01-29T15:59:11.353Z,3.30
2019-01-29T16:01:40.750Z,3.20
2019-01-29T16:04:10.101Z,3.20
2019-01-29T16:06:39.438Z,3.10
2019-01-29T16:09:10.607Z,3.10
2019-01-29T16:11:40.138Z,3.10
2019-01-29T16:14:09.598Z,3.10
2019-01-29T16:16:38.956Z,3.10
2019-01-29T16:19:09.449Z,3.10
2019-01-29T16:21:40.050Z,3.00
2019-01-29T16:24:09.375Z,3.10
2019-01-29T16:26:38.620Z,3.00
2019-01-29T16:29:07.895Z,3.00
2019-01-29T16:31:37.168Z,3.00
2019-01-29T16:34:08.866Z,2.90
2019-01-29T16:36:38.237Z,2.90
2019-01-29T16:39:09.765Z,3.00
2019-01-29T16:41:39.037Z,2.90
2019-01-29T16:44:08.316Z,3.00
2019-01-29T16:46:37.697Z,3.00
2019-01-29T16:49:07.066Z,3.00
2019-01-29T16:51:42.172Z,3.00
2019-01-29T16:54:07.398Z,3.00
2019-01-29T16:56:36.718Z,2.90
2019-01-29T16:59:06.702Z,2.90
2019-01-29T17:01:36.061Z,2.90
2019-01-29T17:04:05.625Z,2.90
2019-01-29T17:06:34.963Z,2.90
2019-01-29T17:09:07.003Z,2.90
2019-01-29T17:11:36.285Z,2.80
2019-01-29T17:14:05.649Z,2.90
2019-01-29T17:16:34.930Z,2.90
2019-01-29T17:19:04.623Z,2.80
2019-01-29T17:21:34.012Z,2.90
2019-01-29T17:24:03.535Z,2.80
2019-01-29T17:26:32.904Z,2.80
2019-01-29T17:29:02.275Z,2.80
2019-01-29T17:31:31.617Z,2.80
2019-01-29T17:34:01.205Z,2.70
2019-01-29T17:36:30.560Z,2.70
2019-01-29T17:38:59.949Z,2.60
2019-01-29T17:41:29.399Z,2.60
2019-01-29T17:43:58.854Z,2.50
2019-01-29T17:46:28.227Z,2.50
2019-01-29T17:48:57.679Z,2.40
2019-01-29T17:51:27.180Z,2.40
2019-01-29T17:53:56.604Z,2.30
2019-01-29T17:56:27.059Z,2.30
2019-01-29T17:58:56.396Z,2.30
2019-01-29T18:01:25.838Z,2.20
2019-01-29T18:03:55.169Z,2.20
2019-01-29T18:06:24.644Z,2.10
2019-01-29T18:08:53.998Z,2.00
2019-01-29T18:11:23.301Z,2.00
2019-01-29T18:13:52.654Z,1.90
2019-01-29T18:16:22.074Z,1.90
2019-01-29T18:18:51.498Z,1.90
2019-01-29T18:21:20.878Z,1.90
2019-01-29T18:23:50.308Z,1.80
2019-01-29T18:26:19.701Z,1.70
2019-01-29T18:28:50.895Z,1.70
2019-01-29T18:31:20.208Z,1.60
2019-01-29T18:33:49.525Z,1.60
2019-01-29T18:36:18.956Z,1.50
2019-01-29T18:38:48.304Z,1.40
2019-01-29T18:41:17.721Z,1.40
2019-01-29T18:43:47.214Z,1.40
2019-01-29T18:46:16.679Z,1.40
2019-01-29T18:48:47.302Z,1.40
2019-01-29T18:51:16.621Z,1.40
2019-01-29T18:53:45.867Z,1.30
2019-01-29T18:56:15.229Z,1.30
2019-01-29T18:58:44.670Z,1.30
2019-01-29T19:01:13.939Z,1.20
2019-01-29T19:03:43.414Z,1.20
2019-01-29T19:06:12.706Z,1.20
2019-01-29T19:08:42.132Z,1.10
2019-01-29T19:11:11.408Z,1.10
2019-01-29T19:13:40.834Z,1.10
2019-01-29T19:16:10.236Z,1.10
2019-01-29T19:18:39.642Z,1.10
2019-01-29T19:21:08.963Z,1.10
2019-01-29T19:23:38.362Z,1.10
2019-01-29T19:26:07.771Z,1.10
2019-01-29T19:28:37.093Z,1.10
2019-01-29T19:31:06.508Z,1.20
2019-01-29T19:33:36.073Z,1.20
2019-01-29T19:36:05.386Z,1.20
2019-01-29T19:38:34.835Z,1.30
2019-01-29T19:41:04.308Z,1.30
2019-01-29T19:43:33.841Z,1.30
2019-01-29T19:46:03.257Z,1.30
2019-01-29T19:48:33.985Z,1.30
2019-01-29T19:51:03.422Z,1.30
2019-01-29T19:53:32.766Z,1.40
2019-01-29T19:56:02.054Z,1.40
2019-01-29T19:58:32.580Z,1.40
2019-01-29T20:01:02.055Z,1.40
2019-01-29T20:03:31.473Z,1.40
2019-01-29T20:06:00.886Z,1.30
2019-01-29T20:08:30.430Z,1.40
2019-01-29T20:10:59.737Z,1.30
2019-01-29T20:13:29.136Z,1.30
2019-01-29T20:15:58.554Z,1.20
2019-01-29T20:18:28.138Z,1.20
2019-01-29T20:20:57.839Z,1.10
2019-01-29T20:23:27.357Z,1.10
2019-01-29T20:25:56.896Z,1.00
2019-01-29T20:28:26.388Z,1.00
2019-01-29T20:30:55.798Z,1.00
2019-01-29T20:33:25.115Z,0.90
2019-01-29T20:35:54.549Z,0.90
2019-01-29T20:38:23.924Z,0.90
2019-01-29T20:40:54.336Z,0.80
2019-01-29T20:43:25.416Z,0.80
2019-01-29T20:45:54.773Z,0.70
2019-01-29T20:48:24.220Z,0.70
2019-01-29T20:50:53.581Z,0.60
2019-01-29T20:53:23.752Z,0.60
2019-01-29T20:55:53.278Z,0.60
2019-01-29T20:58:22.745Z,0.50
2019-01-29T21:00:52.184Z,0.50
2019-01-29T21:03:21.742Z,0.50
2019-01-29T21:05:51.000Z,0.40
2019-01-29T21:08:20.321Z,0.50
2019-01-29T21:10:49.861Z,0.50
2019-01-29T21:13:19.208Z,0.50
2019-01-29T21:15:48.601Z,0.50
2019-01-29T21:18:17.943Z,0.50
2019-01-29T21:20:56.630Z,0.50
2019-01-29T21:23:18.297Z,0.50
2019-01-29T21:25:47.577Z,0.50
2019-01-29T21:28:16.930Z,0.50
2019-01-29T21:30:46.695Z,0.50
2019-01-29T21:33:16.142Z,0.40
2019-01-29T21:35:45.582Z,0.40
2019-01-29T21:38:15.115Z,0.40
2019-01-29T21:40:44.465Z,0.40
2019-01-29T21:43:13.878Z,0.40
2019-01-29T21:45:43.188Z,0.30
2019-01-29T21:48:12.597Z,0.30
2019-01-29T21:50:41.948Z,0.30
2019-01-29T21:53:11.261Z,0.30
2019-01-29T21:55:40.783Z,0.30
2019-01-29T21:58:10.107Z,0.30
2019-01-29T22:00:43.305Z,0.30
2019-01-29T22:03:13.037Z,0.30
2019-01-29T22:05:42.371Z,0.30
2019-01-29T22:08:12.749Z,0.30
2019-01-29T22:10:42.636Z,0.30
2019-01-29T22:13:13.241Z,0.20
2019-01-29T22:15:43.065Z,0.30
2019-01-29T22:18:14.098Z,0.20
2019-01-29T22:20:43.468Z,0.20
2019-01-29T22:23:12.758Z,0.20
2019-01-29T22:25:42.148Z,0.20
2019-01-29T22:28:11.983Z,0.20
2019-01-29T22:30:43.120Z,0.20
2019-01-29T22:33:12.751Z,0.20
2019-01-29T22:35:42.679Z,0.20
2019-01-29T22:38:12.014Z,0.20
2019-01-29T22:40:41.293Z,0.20
2019-01-29T22:43:10.612Z,0.20
2019-01-29T22:45:40.057Z,0.20
2019-01-29T22:48:10.008Z,0.20
2019-01-29T22:50:41.087Z,0.20
2019-01-29T22:53:10.850Z,0.20
2019-01-29T22:55:40.318Z,0.10
2019-01-29T22:58:09.915Z,0.10
2019-01-29T23:01:10.486Z,0.10
2019-01-29T23:03:45.283Z,0.10
2019-01-29T23:06:50.561Z,0.10
2019-01-29T23:09:19.918Z,0.00
2019-01-29T23:11:49.296Z,0.00
2019-01-29T23:14:18.753Z,-0.10
2019-01-29T23:16:48.166Z,-0.10
2019-01-29T23:19:17.566Z,-0.10
2019-01-29T23:21:46.945Z,-0.10
2019-01-29T23:24:16.334Z,-0.20
2019-01-29T23:26:45.695Z,-0.10
2019-01-29T23:29:17.157Z,-0.20
2019-01-29T23:31:45.983Z,-0.10
2019-01-29T23:34:15.393Z,-0.10
2019-01-29T23:36:44.656Z,-0.20
2019-01-29T23:39:13.998Z,-0.20
2019-01-29T23:41:43.275Z,-0.20
2019-01-29T23:44:15.983Z,-0.20
2019-01-29T23:46:45.377Z,-0.20
2019-01-29T23:49:14.689Z,-0.20
2019-01-29T23:51:43.981Z,-0.30
2019-01-29T23:54:13.409Z,-0.30
2019-01-29T23:56:42.763Z,-0.30
2019-01-29T23:59:12.046Z,-0.20
